createdAt,value
2019-04-29T00:01:35.726Z,13.60
2019-04-29T00:04:04.415Z,13.72
2019-04-29T00:06:33.160Z,13.38
2019-04-29T00:09:01.855Z,13.14
2019-04-29T00:11:30.550Z,13.21
2019-04-29T00:13:59.377Z,13.57
2019-04-29T00:16:32.711Z,13.38
2019-04-29T00:19:19.193Z,13.33
2019-04-29T00:21:48.390Z,13.39
2019-04-29T00:24:17.081Z,13.47
2019-04-29T00:26:45.827Z,13.53
2019-04-29T00:29:14.518Z,13.50
2019-04-29T00:31:43.216Z,13.34
2019-04-29T00:34:11.876Z,13.28
2019-04-29T00:36:50.910Z,13.64
2019-04-29T00:39:37.175Z,13.84
2019-04-29T00:42:22.515Z,14.21
2019-04-29T00:44:51.242Z,14.10
2019-04-29T00:47:19.950Z,13.98
2019-04-29T00:49:48.626Z,14.24
2019-04-29T00:52:17.481Z,14.13
2019-04-29T00:55:03.835Z,14.36
2019-04-29T00:57:32.564Z,14.17
2019-04-29T01:00:01.262Z,13.90
2019-04-29T01:02:29.951Z,14.19
2019-04-29T01:04:58.732Z,14.17
2019-04-29T01:07:27.593Z,14.39
2019-04-29T01:09:56.291Z,14.02
2019-04-29T01:12:25.023Z,13.70
2019-04-29T01:14:53.711Z,14.14
2019-04-29T01:17:22.808Z,14.08
2019-04-29T01:19:51.545Z,14.22
2019-04-29T01:22:20.345Z,14.34
2019-04-29T01:24:49.042Z,14.41
2019-04-29T01:27:22.417Z,14.02
2019-04-29T01:29:51.105Z,14.06
2019-04-29T01:32:19.892Z,14.06
2019-04-29T01:37:41.964Z,13.72
2019-04-29T01:40:21.606Z,13.78
2019-04-29T01:42:50.328Z,13.59
2019-04-29T01:45:19.010Z,13.81
2019-04-29T01:47:47.626Z,13.15
2019-04-29T01:50:16.348Z,13.23
2019-04-29T01:52:44.985Z,13.77
2019-04-29T01:55:13.798Z,13.24
2019-04-29T01:57:42.526Z,12.94
2019-04-29T02:00:12.645Z,12.45
2019-04-29T02:02:41.308Z,13.09
2019-04-29T02:05:10.126Z,12.91
2019-04-29T02:07:38.741Z,12.59
2019-04-29T02:10:14.993Z,12.32
2019-04-29T02:12:43.688Z,12.15
2019-04-29T02:15:12.478Z,12.98
2019-04-29T02:17:41.133Z,13.35
2019-04-29T02:20:10.020Z,13.57
2019-04-29T02:22:40.279Z,13.35
2019-04-29T02:25:26.679Z,13.66
2019-04-29T02:27:55.359Z,13.93
2019-04-29T02:30:44.818Z,14.17
2019-04-29T02:33:13.609Z,14.23
2019-04-29T02:35:42.299Z,14.41
2019-04-29T02:38:24.456Z,14.14
2019-04-29T02:40:57.445Z,14.14
2019-04-29T02:43:27.773Z,14.28
2019-04-29T02:45:56.489Z,14.44
2019-04-29T02:48:30.013Z,14.40
2019-04-29T02:50:55.596Z,14.35
2019-04-29T02:53:24.326Z,14.35
2019-04-29T02:55:54.598Z,14.09
2019-04-29T02:58:27.541Z,14.27
2019-04-29T03:01:14.188Z,14.50
2019-04-29T03:03:50.439Z,14.40
2019-04-29T03:06:19.115Z,14.19
2019-04-29T03:08:47.832Z,14.01
2019-04-29T03:11:16.828Z,13.81
2019-04-29T03:13:45.639Z,13.55
2019-04-29T03:16:14.608Z,13.56
2019-04-29T03:18:44.931Z,13.10
2019-04-29T03:21:15.195Z,13.30
2019-04-29T03:23:44.049Z,13.66
2019-04-29T03:26:12.737Z,12.92
2019-04-29T03:28:41.458Z,12.78
2019-04-29T03:31:10.186Z,12.65
2019-04-29T03:33:38.877Z,13.07
2019-04-29T03:36:07.628Z,13.02
2019-04-29T03:38:36.376Z,13.43
2019-04-29T03:41:05.071Z,13.06
2019-04-29T03:43:33.693Z,12.34
2019-04-29T03:46:02.568Z,12.76
2019-04-29T03:48:31.314Z,13.19
2019-04-29T03:51:00.017Z,13.26
2019-04-29T03:53:28.928Z,13.80
2019-04-29T03:55:57.571Z,13.83
2019-04-29T03:58:26.260Z,14.03
2019-04-29T04:01:02.430Z,13.88
2019-04-29T04:03:41.577Z,14.06
2019-04-29T04:06:11.890Z,14.10
2019-04-29T04:09:06.116Z,14.10
2019-04-29T04:11:27.874Z,14.12
2019-04-29T04:13:56.559Z,13.83
2019-04-29T04:16:29.555Z,14.05
2019-04-29T04:19:08.723Z,13.95
2019-04-29T04:21:37.405Z,13.32
2019-04-29T04:24:06.098Z,13.38
2019-04-29T04:26:34.757Z,13.38
2019-04-29T04:29:03.457Z,12.91
2019-04-29T04:31:32.137Z,12.88
2019-04-29T04:34:00.793Z,13.19
2019-04-29T04:36:29.470Z,13.11
2019-04-29T04:38:58.161Z,13.28
2019-04-29T04:41:26.887Z,12.97
2019-04-29T04:43:55.562Z,12.93
2019-04-29T04:46:24.258Z,12.77
2019-04-29T04:48:53.020Z,12.87
2019-04-29T04:51:21.703Z,12.78
2019-04-29T04:53:50.392Z,13.04
2019-04-29T04:56:19.125Z,13.23
2019-04-29T04:58:47.818Z,13.46
2019-04-29T05:01:16.507Z,13.20
2019-04-29T05:03:45.153Z,13.22
2019-04-29T05:06:13.853Z,13.27
2019-04-29T05:08:42.538Z,13.02
2019-04-29T05:11:11.269Z,12.63
2019-04-29T05:13:39.959Z,12.94
2019-04-29T05:16:08.652Z,13.37
2019-04-29T05:18:37.379Z,13.79
2019-04-29T05:21:06.216Z,13.71
2019-04-29T05:23:34.916Z,13.23
2019-04-29T05:26:03.648Z,14.07
2019-04-29T05:28:32.261Z,14.11
2019-04-29T05:31:00.959Z,13.67
2019-04-29T05:33:29.690Z,13.61
2019-04-29T05:36:01.873Z,13.48
2019-04-29T05:38:31.933Z,14.10
2019-04-29T05:41:00.654Z,13.86
2019-04-29T05:43:42.798Z,14.24
2019-04-29T05:46:17.469Z,14.15
2019-04-29T05:48:46.654Z,13.95
2019-04-29T05:51:16.912Z,13.42
2019-04-29T05:53:55.153Z,13.77
2019-04-29T05:56:23.533Z,13.80
2019-04-29T05:58:52.161Z,13.95
2019-04-29T06:01:22.454Z,14.53
2019-04-29T06:03:51.075Z,14.65
2019-04-29T06:06:19.710Z,14.68
2019-04-29T06:08:48.425Z,14.42
2019-04-29T06:11:17.115Z,14.52
2019-04-29T06:13:45.729Z,14.79
2019-04-29T06:16:15.826Z,14.61
2019-04-29T06:18:45.018Z,13.87
2019-04-29T06:21:13.633Z,14.00
2019-04-29T06:23:42.298Z,13.84
2019-04-29T06:26:11.041Z,14.51
2019-04-29T06:28:39.740Z,14.58
2019-04-29T06:31:08.470Z,14.56
2019-04-29T06:33:37.087Z,14.72
2019-04-29T06:36:05.869Z,15.01
2019-04-29T06:38:34.630Z,15.03
2019-04-29T06:41:05.495Z,14.91
2019-04-29T06:43:33.591Z,15.95
2019-04-29T06:46:02.306Z,15.88
2019-04-29T06:48:30.925Z,15.34
2019-04-29T06:50:59.622Z,15.58
2019-04-29T06:53:28.340Z,15.73
2019-04-29T06:55:57.036Z,15.78
2019-04-29T06:58:25.718Z,15.35
2019-04-29T07:00:55.759Z,14.87
2019-04-29T07:03:26.674Z,15.93
2019-04-29T07:05:55.453Z,15.30
2019-04-29T07:08:24.073Z,16.13
2019-04-29T07:10:55.967Z,16.03
2019-04-29T07:13:24.613Z,15.88
2019-04-29T07:15:53.308Z,16.11
2019-04-29T07:18:21.924Z,16.28
2019-04-29T07:20:50.596Z,15.21
2019-04-29T07:23:19.215Z,15.67
2019-04-29T07:25:47.892Z,16.24
2019-04-29T07:28:18.444Z,16.89
2019-04-29T07:31:00.913Z,16.54
2019-04-29T07:33:22.120Z,16.93
2019-04-29T07:35:49.517Z,16.18
2019-04-29T07:38:18.299Z,16.58
2019-04-29T07:40:46.989Z,16.94
2019-04-29T07:43:15.710Z,16.57
2019-04-29T07:45:49.367Z,16.56
2019-04-29T07:48:18.063Z,16.98
2019-04-29T07:50:46.775Z,17.60
2019-04-29T07:53:15.461Z,17.37
2019-04-29T07:55:44.149Z,16.90
2019-04-29T07:58:12.891Z,17.65
2019-04-29T08:00:44.650Z,17.86
2019-04-29T08:03:11.999Z,18.10
2019-04-29T08:05:41.222Z,17.46
2019-04-29T08:08:09.922Z,17.45
2019-04-29T08:10:53.734Z,16.11
2019-04-29T08:13:09.545Z,17.02
2019-04-29T08:15:41.667Z,16.81
2019-04-29T08:18:11.256Z,17.30
2019-04-29T08:20:39.809Z,17.02
2019-04-29T08:23:09.416Z,16.84
2019-04-29T08:25:38.038Z,17.59
2019-04-29T08:28:06.779Z,18.06
2019-04-29T08:30:35.398Z,18.38
2019-04-29T08:33:07.478Z,18.57
2019-04-29T08:35:36.806Z,18.62
2019-04-29T08:38:05.286Z,18.66
2019-04-29T08:40:34.414Z,17.90
2019-04-29T08:43:22.181Z,18.36
2019-04-29T08:45:55.329Z,18.36
2019-04-29T08:48:24.023Z,19.09
2019-04-29T08:50:52.737Z,18.94
2019-04-29T08:53:21.358Z,18.95
2019-04-29T08:55:50.053Z,17.62
2019-04-29T08:58:18.769Z,18.37
2019-04-29T09:00:47.461Z,18.59
2019-04-29T09:03:18.804Z,18.03
2019-04-29T09:06:03.946Z,18.00
2019-04-29T09:08:17.029Z,18.40
2019-04-29T09:10:45.704Z,17.86
2019-04-29T09:13:14.428Z,18.53
2019-04-29T09:15:43.125Z,18.80
2019-04-29T09:18:11.825Z,18.99
2019-04-29T09:20:40.561Z,18.52
2019-04-29T09:23:13.807Z,18.87
2019-04-29T09:25:44.066Z,18.08
2019-04-29T09:28:18.170Z,18.85
2019-04-29T09:30:44.935Z,19.04
2019-04-29T09:33:14.342Z,18.79
2019-04-29T09:35:43.137Z,19.02
2019-04-29T09:38:11.763Z,18.67
2019-04-29T09:40:45.761Z,18.96
2019-04-29T09:43:34.309Z,19.06
2019-04-29T09:46:04.570Z,19.39
2019-04-29T09:48:33.262Z,19.40
2019-04-29T09:51:01.985Z,19.68
2019-04-29T09:53:30.669Z,19.74
2019-04-29T09:55:59.362Z,18.93
2019-04-29T09:58:28.083Z,18.72
2019-04-29T10:00:58.634Z,19.63
2019-04-29T10:03:28.883Z,19.78
2019-04-29T10:06:05.066Z,19.28
2019-04-29T10:08:33.751Z,18.91
2019-04-29T10:11:02.487Z,19.45
2019-04-29T10:13:31.138Z,19.42
2019-04-29T10:16:02.149Z,19.66
2019-04-29T10:18:38.321Z,18.94
2019-04-29T10:21:11.759Z,19.77
2019-04-29T10:23:40.548Z,19.85
2019-04-29T10:26:09.266Z,19.83
2019-04-29T10:28:39.535Z,19.85
2019-04-29T10:31:08.732Z,18.34
2019-04-29T10:33:37.465Z,19.62
2019-04-29T10:36:06.959Z,19.63
2019-04-29T10:38:35.643Z,20.03
2019-04-29T10:41:11.754Z,20.34
2019-04-29T10:43:49.344Z,20.41
2019-04-29T10:46:35.639Z,20.74
2019-04-29T10:49:21.700Z,19.95
2019-04-29T10:51:50.434Z,20.13
2019-04-29T10:54:19.126Z,20.47
2019-04-29T10:56:47.819Z,20.22
2019-04-29T10:59:16.550Z,20.13
2019-04-29T11:02:01.710Z,19.59
2019-04-29T11:04:25.867Z,19.43
2019-04-29T11:06:54.481Z,19.90
2019-04-29T11:09:25.354Z,19.81
2019-04-29T11:11:54.090Z,20.30
2019-04-29T11:14:24.770Z,20.59
2019-04-29T11:16:53.201Z,20.40
2019-04-29T11:19:21.845Z,20.07
2019-04-29T11:21:50.537Z,20.57
2019-04-29T11:24:32.343Z,20.38
2019-04-29T11:27:11.656Z,20.63
2019-04-29T11:29:32.093Z,20.26
2019-04-29T11:32:02.458Z,20.99
2019-04-29T11:34:35.468Z,21.43
2019-04-29T11:37:04.362Z,21.14
2019-04-29T11:39:33.095Z,21.16
2019-04-29T11:42:01.892Z,20.73
2019-04-29T11:44:31.954Z,21.21
2019-04-29T11:47:00.799Z,20.97
2019-04-29T11:49:31.059Z,21.51
2019-04-29T11:52:09.129Z,21.82
2019-04-29T11:54:30.222Z,21.96
2019-04-29T11:56:59.031Z,20.91
2019-04-29T11:59:38.430Z,21.76
2019-04-29T12:02:24.266Z,21.33
2019-04-29T12:04:53.090Z,21.45
2019-04-29T12:07:21.988Z,21.80
2019-04-29T12:09:50.786Z,21.81
2019-04-29T12:12:20.816Z,20.89
2019-04-29T12:14:51.074Z,20.40
2019-04-29T12:17:21.337Z,20.89
2019-04-29T12:20:07.706Z,21.33
2019-04-29T12:22:47.725Z,21.19
2019-04-29T12:25:07.617Z,20.91
2019-04-29T12:27:36.346Z,21.71
2019-04-29T12:30:08.608Z,21.75
2019-04-29T12:32:44.801Z,21.48
2019-04-29T12:35:16.764Z,21.55
2019-04-29T12:37:47.061Z,21.27
2019-04-29T12:40:33.512Z,21.42
2019-04-29T12:43:11.380Z,20.99
2019-04-29T12:45:38.973Z,21.59
2019-04-29T12:48:07.669Z,21.99
2019-04-29T12:50:36.356Z,22.21
2019-04-29T12:53:05.876Z,21.16
2019-04-29T12:55:44.764Z,22.09
2019-04-29T12:58:06.556Z,22.70
2019-04-29T13:00:47.346Z,22.47
2019-04-29T13:03:16.843Z,21.03
2019-04-29T13:06:02.692Z,22.15
2019-04-29T13:08:32.988Z,22.21
2019-04-29T13:11:03.244Z,22.25
2019-04-29T13:13:31.980Z,22.59
2019-04-29T13:16:21.828Z,22.82
2019-04-29T13:18:53.922Z,21.31
2019-04-29T13:21:22.654Z,21.19
2019-04-29T13:23:59.531Z,22.10
2019-04-29T13:26:28.211Z,22.60
2019-04-29T13:29:00.251Z,22.02
2019-04-29T13:31:37.512Z,22.70
2019-04-29T13:33:54.742Z,22.64
2019-04-29T13:36:25.843Z,22.92
2019-04-29T13:38:53.778Z,22.97
2019-04-29T13:41:24.453Z,22.66
2019-04-29T13:43:54.728Z,22.61
2019-04-29T13:46:31.011Z,22.91
2019-04-29T13:49:17.628Z,22.48
2019-04-29T13:51:47.974Z,23.30
2019-04-29T13:54:16.667Z,23.65
2019-04-29T13:56:55.550Z,23.79
2019-04-29T13:59:17.375Z,23.92
2019-04-29T14:01:59.948Z,23.81
2019-04-29T14:04:28.815Z,23.63
2019-04-29T14:06:57.864Z,22.34
2019-04-29T14:09:26.659Z,22.95
2019-04-29T14:12:04.327Z,22.69
2019-04-29T14:14:28.231Z,22.73
2019-04-29T14:17:17.243Z,22.95
2019-04-29T14:19:41.023Z,22.88
2019-04-29T14:21:57.080Z,22.25
2019-04-29T14:24:25.775Z,23.56
2019-04-29T14:26:54.504Z,23.99
2019-04-29T14:29:28.004Z,23.42
2019-04-29T14:31:59.171Z,23.87
2019-04-29T14:34:34.868Z,23.98
2019-04-29T14:37:19.694Z,23.47
2019-04-29T14:39:36.999Z,23.54
2019-04-29T14:42:25.701Z,23.66
2019-04-29T14:44:54.167Z,22.97
2019-04-29T14:47:36.602Z,22.90
2019-04-29T14:50:10.576Z,22.72
2019-04-29T14:52:38.590Z,22.90
2019-04-29T14:55:07.562Z,22.69
2019-04-29T14:57:36.258Z,22.93
2019-04-29T15:00:07.916Z,23.22
2019-04-29T15:02:36.657Z,22.90
2019-04-29T15:05:11.703Z,22.26
2019-04-29T15:07:37.323Z,22.40
2019-04-29T15:10:08.463Z,22.76
2019-04-29T15:13:11.490Z,23.21
2019-04-29T15:15:29.753Z,23.01
2019-04-29T15:18:20.154Z,23.21
2019-04-29T15:20:48.227Z,23.30
2019-04-29T15:23:28.043Z,23.21
2019-04-29T15:25:47.338Z,22.72
2019-04-29T15:28:18.753Z,21.67
2019-04-29T15:30:46.478Z,22.15
2019-04-29T15:33:15.174Z,22.00
2019-04-29T15:35:43.914Z,21.91
2019-04-29T15:38:12.614Z,21.88
2019-04-29T15:40:43.095Z,22.21
2019-04-29T15:43:11.765Z,22.52
2019-04-29T15:45:40.792Z,22.64
2019-04-29T15:48:09.447Z,22.24
2019-04-29T15:50:39.074Z,22.76
2019-04-29T15:53:07.857Z,23.23
2019-04-29T15:55:39.470Z,23.31
2019-04-29T15:58:07.261Z,22.87
2019-04-29T16:00:39.800Z,22.52
2019-04-29T16:03:06.492Z,22.52
2019-04-29T16:05:56.020Z,22.57
2019-04-29T16:08:20.338Z,21.71
2019-04-29T16:11:06.688Z,21.40
2019-04-29T16:13:35.389Z,21.22
2019-04-29T16:16:04.093Z,21.54
2019-04-29T16:18:32.823Z,21.50
2019-04-29T16:21:01.444Z,21.80
2019-04-29T16:23:32.897Z,21.83
2019-04-29T16:26:00.584Z,21.67
2019-04-29T16:28:31.387Z,21.97
2019-04-29T16:31:05.257Z,21.60
2019-04-29T16:33:30.287Z,21.61
2019-04-29T16:36:04.819Z,21.15
2019-04-29T16:38:29.353Z,20.91
2019-04-29T16:41:19.405Z,21.65
2019-04-29T16:43:46.657Z,21.68
2019-04-29T16:46:16.925Z,21.51
2019-04-29T16:48:45.696Z,21.82
2019-04-29T16:51:16.642Z,21.28
2019-04-29T16:53:44.745Z,20.91
2019-04-29T16:56:16.336Z,21.23
2019-04-29T16:58:45.260Z,21.46
2019-04-29T17:01:13.961Z,21.71
2019-04-29T17:03:42.685Z,21.71
2019-04-29T17:06:11.305Z,21.71
2019-04-29T17:08:50.624Z,21.76
2019-04-29T17:11:17.479Z,21.71
2019-04-29T17:13:47.038Z,21.56
2019-04-29T17:16:17.139Z,21.32
2019-04-29T17:18:45.908Z,21.09
2019-04-29T17:21:14.893Z,21.11
2019-04-29T17:23:43.610Z,21.00
2019-04-29T17:26:12.358Z,21.00
2019-04-29T17:28:48.779Z,20.91
2019-04-29T17:31:25.458Z,20.73
2019-04-29T17:33:56.351Z,20.81
2019-04-29T17:36:25.860Z,20.80
2019-04-29T17:38:54.798Z,20.72
2019-04-29T17:41:23.509Z,20.76
2019-04-29T17:44:14.657Z,20.63
2019-04-29T17:46:55.783Z,20.64
2019-04-29T17:49:29.696Z,20.56
2019-04-29T17:52:02.916Z,20.13
2019-04-29T17:54:34.892Z,20.33
2019-04-29T17:57:25.118Z,20.17
2019-04-29T17:59:37.096Z,20.16
2019-04-29T18:02:10.390Z,19.91
2019-04-29T18:04:45.576Z,20.00
2019-04-29T18:07:18.445Z,19.99
2019-04-29T18:09:48.789Z,18.67
2019-04-29T18:12:24.905Z,19.26
2019-04-29T18:14:55.070Z,19.48
2019-04-29T18:17:30.347Z,19.30
2019-04-29T18:20:00.218Z,18.90
2019-04-29T18:22:34.819Z,19.01
2019-04-29T18:25:10.840Z,19.16
2019-04-29T18:27:41.113Z,19.29
2019-04-29T18:30:12.220Z,19.46
2019-04-29T18:32:46.380Z,19.45
2019-04-29T18:35:11.095Z,19.32
2019-04-29T18:37:39.790Z,19.42
2019-04-29T18:40:09.058Z,19.37
2019-04-29T18:42:38.362Z,19.35
2019-04-29T18:45:08.296Z,19.25
2019-04-29T18:47:38.854Z,18.05
2019-04-29T18:50:07.968Z,18.39
2019-04-29T18:52:38.109Z,18.82
2019-04-29T18:55:07.052Z,18.72
2019-04-29T18:57:35.898Z,18.49
2019-04-29T19:00:11.694Z,18.38
2019-04-29T19:02:45.371Z,18.39
2019-04-29T19:05:17.263Z,17.66
2019-04-29T19:07:54.980Z,17.23
2019-04-29T19:10:18.403Z,17.92
2019-04-29T19:12:57.518Z,18.29
2019-04-29T19:15:17.894Z,18.22
2019-04-29T19:17:58.716Z,17.90
2019-04-29T19:20:18.656Z,17.52
2019-04-29T19:22:47.482Z,17.45
2019-04-29T19:25:16.173Z,17.78
2019-04-29T19:27:45.444Z,18.03
2019-04-29T19:30:20.859Z,17.70
2019-04-29T19:32:46.886Z,17.93
2019-04-29T19:35:16.963Z,17.31
2019-04-29T19:37:45.812Z,17.45
2019-04-29T19:40:15.066Z,17.25
2019-04-29T19:42:46.886Z,16.91
2019-04-29T19:45:15.492Z,17.27
2019-04-29T19:47:47.423Z,17.63
2019-04-29T19:50:18.271Z,17.71
2019-04-29T19:52:45.631Z,17.55
2019-04-29T19:55:14.258Z,17.08
2019-04-29T19:57:48.082Z,17.40
2019-04-29T20:00:14.442Z,16.42
2019-04-29T20:02:46.458Z,17.19
2019-04-29T20:05:23.974Z,17.32
2019-04-29T20:07:50.861Z,17.48
2019-04-29T20:10:20.887Z,17.70
2019-04-29T20:12:53.313Z,17.66
2019-04-29T20:15:20.904Z,17.55
2019-04-29T20:17:57.561Z,17.63
2019-04-29T20:23:00.655Z,17.79
2019-04-29T20:25:35.672Z,17.55
2019-04-29T20:28:06.051Z,16.94
2019-04-29T20:30:30.337Z,16.72
2019-04-29T20:33:01.652Z,16.06
2019-04-29T20:35:29.704Z,15.81
2019-04-29T20:38:00.199Z,16.43
2019-04-29T20:40:35.228Z,16.25
2019-04-29T20:42:59.656Z,16.53
2019-04-29T20:45:29.081Z,16.94
2019-04-29T20:47:58.063Z,16.30
2019-04-29T20:50:27.033Z,16.84
2019-04-29T20:53:12.627Z,17.24
2019-04-29T20:55:41.501Z,16.84
2019-04-29T20:58:10.333Z,17.55
2019-04-29T21:00:40.128Z,17.64
2019-04-29T21:03:11.189Z,17.58
2019-04-29T21:05:47.416Z,17.78
2019-04-29T21:08:15.106Z,17.79
2019-04-29T21:10:43.085Z,17.72
2019-04-29T21:13:16.173Z,17.76
2019-04-29T21:15:55.903Z,16.98
2019-04-29T21:18:25.090Z,17.01
2019-04-29T21:20:55.186Z,17.10
2019-04-29T21:23:23.864Z,16.57
2019-04-29T21:25:52.559Z,15.73
2019-04-29T21:28:21.276Z,16.10
2019-04-29T21:30:50.019Z,16.60
2019-04-29T21:33:21.428Z,16.70
2019-04-29T21:35:57.641Z,16.88
2019-04-29T21:38:28.479Z,16.67
2019-04-29T21:41:04.413Z,16.31
2019-04-29T21:43:35.450Z,17.45
2019-04-29T21:46:05.745Z,17.88
2019-04-29T21:48:36.878Z,17.76
2019-04-29T21:51:06.801Z,18.02
2019-04-29T21:53:36.501Z,18.09
2019-04-29T21:56:09.111Z,18.26
2019-04-29T21:58:36.185Z,18.32
2019-04-29T22:01:05.489Z,18.34
2019-04-29T22:03:34.187Z,18.33
2019-04-29T22:06:02.980Z,18.13
2019-04-29T22:08:31.807Z,18.17
2019-04-29T22:11:04.901Z,18.31
2019-04-29T22:13:35.671Z,18.25
2019-04-29T22:16:01.559Z,18.05
2019-04-29T22:18:30.457Z,18.38
2019-04-29T22:20:59.194Z,18.31
2019-04-29T22:23:27.894Z,18.20
2019-04-29T22:25:56.749Z,17.86
2019-04-29T22:28:25.484Z,17.91
2019-04-29T22:30:54.902Z,17.96
2019-04-29T22:33:25.278Z,17.91
2019-04-29T22:35:55.464Z,17.83
2019-04-29T22:38:24.951Z,17.98
2019-04-29T22:40:55.190Z,18.05
2019-04-29T22:43:31.156Z,17.95
2019-04-29T22:45:59.863Z,17.98
2019-04-29T22:48:28.559Z,17.83
2019-04-29T22:50:57.283Z,17.80
2019-04-29T22:53:25.971Z,17.08
2019-04-29T22:55:56.574Z,17.54
2019-04-29T22:58:25.048Z,17.78
2019-04-29T23:00:53.744Z,17.89
2019-04-29T23:03:22.443Z,17.50
2019-04-29T23:05:51.090Z,17.88
2019-04-29T23:08:19.723Z,18.01
2019-04-29T23:10:48.418Z,18.02
2019-04-29T23:13:17.154Z,18.02
2019-04-29T23:15:45.852Z,17.24
2019-04-29T23:18:24.326Z,17.12
2019-04-29T23:20:52.372Z,17.32
2019-04-29T23:23:22.656Z,17.75
2019-04-29T23:25:52.900Z,17.92
2019-04-29T23:28:22.477Z,17.59
2019-04-29T23:30:53.388Z,17.79
2019-04-29T23:33:24.001Z,17.75
2019-04-29T23:35:52.543Z,17.68
2019-04-29T23:38:21.242Z,17.91
2019-04-29T23:40:54.592Z,17.74
2019-04-29T23:43:27.037Z,16.71
2019-04-29T23:45:51.904Z,16.76
2019-04-29T23:48:23.764Z,16.73
2019-04-29T23:50:54.670Z,17.31
2019-04-29T23:53:25.153Z,17.75
2019-04-29T23:55:52.443Z,16.92
2019-04-29T23:58:22.746Z,17.27
